LKCB weather

Cheb Airport
Cheb, Carlsbad Region, Czech Republic

Public forecast

Using degrees Celsius for public forecast. Weather courtesy of forecast.io.

Closest aviation weather report (METAR) to Cheb Airport

Closest report is Karlovy Vary International Airport, 21.0 nm (39.0 km) ENE. Retrieved 2020/01/22 22:00 UTC (31 minutes ago):

LKKV 222200Z VRB01KT 9999 OVC017 M00/M02 Q1033

Closest aviation forecast (TAF) to Cheb Airport

Closest forecast is Karlovy Vary International Airport, 21.0 nm (39.0 km) ENE. Retrieved 2020/01/22 18:03 UTC (4 hours ago):

TAF LKKV 221700Z 2218/2400 29006KT 9999 BKN013 BECMG 2218/2221 3000 BR TEMPO 2221/2309 1200 MIFG BKN007 PROB40 TEMPO 2300/2308 0300 FZFG OVC002 BECMG 2309/2311 5000 BR TEMPO 2313/2400 7000 SCT020